Time;durP1;ratioP1;P1;durP2;ratioP2;P2;SDS_P1;SDS_P2;PMS_P1;PMS_P2;Temp;Humidity;BMP_temperature;BMP_pressure;BME280_temperature;BME280_humidity;BME280_pressure;Samples;Min_cycle;Max_cycle;Signal;HPM_P1;HPM_P2
2021/10/26 00:00:04;;;;;;;5.40;2.47;;;;;;;5.42;86.06;96726.16;5019524;28;20202;-68
2021/10/26 00:02:31;;;;;;;3.17;2.13;;;;;;;5.33;85.71;96729.56;5015869;28;20205;-69
2021/10/26 00:04:57;;;;;;;6.43;2.47;;;;;;;5.18;85.42;96728.31;5019286;28;20201;-67
2021/10/26 00:07:24;;;;;;;2.13;1.90;;;;;;;5.10;86.25;96727.31;5017966;28;20222;-69
2021/10/26 00:09:51;;;;;;;2.27;2.07;;;;;;;5.30;85.86;96732.47;5018577;28;20206;-68
2021/10/26 00:12:18;;;;;;;5.97;3.07;;;;;;;5.18;86.49;96733.53;5018785;28;20240;-68
2021/10/26 00:14:45;;;;;;;2.10;1.90;;;;;;;5.38;86.00;96727.41;5018809;28;20231;-68
2021/10/26 00:17:12;;;;;;;1.80;1.67;;;;;;;5.35;85.96;96730.28;5017784;28;20226;-69
2021/10/26 00:19:38;;;;;;;3.60;2.03;;;;;;;5.28;85.28;96734.38;5018559;28;20209;-69
2021/10/26 00:22:05;;;;;;;1.50;1.20;;;;;;;5.39;86.62;96742.13;5019524;28;20213;-69
2021/10/26 00:24:31;;;;;;;2.50;2.30;;;;;;;5.36;87.77;96731.94;5018050;28;20212;-69
2021/10/26 00:26:59;;;;;;;3.73;1.90;;;;;;;5.45;88.94;96745.03;5016852;28;20447;-68
2021/10/26 00:29:26;;;;;;;4.23;2.60;;;;;;;5.43;87.40;96733.91;5018944;28;20202;-69
2021/10/26 00:31:52;;;;;;;4.17;2.33;;;;;;;5.40;88.55;96738.56;5018316;28;21176;-69
2021/10/26 00:34:19;;;;;;;3.83;2.97;;;;;;;5.61;88.16;96736.66;5017889;28;20202;-68
2021/10/26 00:36:45;;;;;;;6.97;3.40;;;;;;;5.62;88.15;96736.53;5017296;28;20229;-68
2021/10/26 00:39:12;;;;;;;4.13;2.63;;;;;;;5.68;87.87;96737.78;5017582;28;20206;-68
2021/10/26 00:41:38;;;;;;;3.70;1.70;;;;;;;5.71;88.32;96729.66;5017621;28;20202;-69
2021/10/26 00:44:06;;;;;;;5.90;3.13;;;;;;;5.94;90.05;96733.72;5018233;28;20205;-68
2021/10/26 00:46:35;;;;;;;6.10;2.90;;;;;;;6.01;89.56;96733.03;5016921;28;20233;-68
2021/10/26 00:49:04;;;;;;;6.93;2.53;;;;;;;6.09;90.06;96730.56;5017940;28;20212;-69
2021/10/26 00:51:31;;;;;;;7.47;3.43;;;;;;;6.16;89.61;96737.72;5017561;28;20198;-69
2021/10/26 00:53:58;;;;;;;6.33;3.73;;;;;;;6.27;89.88;96728.88;5017870;28;20216;-68
2021/10/26 00:56:26;;;;;;;5.93;2.40;;;;;;;6.32;90.64;96732.72;5017216;28;20323;-69
2021/10/26 00:58:53;;;;;;;5.47;2.27;;;;;;;6.29;90.95;96729.59;5017766;28;20206;-68
2021/10/26 01:01:20;;;;;;;4.80;2.17;;;;;;;6.34;92.81;96730.81;5015763;28;20211;-69
2021/10/26 01:03:47;;;;;;;4.60;2.73;;;;;;;6.21;92.45;96732.06;5017192;28;20578;-69
2021/10/26 01:06:14;;;;;;;6.97;3.77;;;;;;;6.37;92.37;96727.91;5016945;28;20228;-69
2021/10/26 01:08:41;;;;;;;7.13;3.77;;;;;;;6.52;92.22;96721.28;5017661;28;20198;-69
2021/10/26 01:11:07;;;;;;;10.63;4.70;;;;;;;6.44;92.25;96731.63;5017566;28;20784;-69
2021/10/26 01:13:34;;;;;;;5.67;3.33;;;;;;;6.49;93.53;96736.44;5017095;28;20226;-69
2021/10/26 01:16:01;;;;;;;7.33;4.00;;;;;;;6.35;94.69;96729.00;5016811;28;20871;-69
2021/10/26 01:18:29;;;;;;;8.63;4.90;;;;;;;6.62;93.88;96736.97;5017870;28;20198;-69
2021/10/26 01:20:57;;;;;;;9.63;4.53;;;;;;;6.50;95.51;96736.28;5017082;28;20726;-69
2021/10/26 01:23:25;;;;;;;8.00;3.17;;;;;;;6.50;94.15;96735.47;5016881;28;20681;-69
2021/10/26 01:25:52;;;;;;;4.27;3.13;;;;;;;6.49;93.95;96733.81;5016829;28;20221;-68
2021/10/26 01:28:19;;;;;;;14.27;3.73;;;;;;;6.67;93.29;96730.34;5017430;28;20202;-69
2021/10/26 01:30:46;;;;;;;7.43;3.93;;;;;;;6.57;94.71;96739.16;5016893;28;20963;-69
2021/10/26 01:33:13;;;;;;;9.17;3.30;;;;;;;6.49;94.75;96737.28;5017634;28;20222;-69
2021/10/26 01:35:39;;;;;;;11.70;3.30;;;;;;;6.67;94.28;96730.34;5016969;28;20209;-69
2021/10/26 01:38:07;;;;;;;8.10;4.10;;;;;;;6.72;94.90;96735.97;5017470;28;20653;-69
2021/10/26 01:40:35;;;;;;;9.93;3.80;;;;;;;6.70;93.66;96727.44;5016580;28;20670;-69
2021/10/26 01:43:02;;;;;;;14.27;3.40;;;;;;;6.68;94.29;96732.81;5017593;28;20210;-68
2021/10/26 01:45:28;;;;;;;9.50;3.80;;;;;;;6.73;94.39;96727.16;5016200;28;20205;-68
2021/10/26 01:47:55;;;;;;;10.53;4.93;;;;;;;6.73;93.68;96735.00;5016470;28;20202;-69
2021/10/26 01:50:22;;;;;;;6.37;2.93;;;;;;;6.73;93.49;96728.00;5017178;28;20209;-68
2021/10/26 01:52:49;;;;;;;7.13;4.50;;;;;;;6.73;92.87;96724.53;5017083;28;20225;-69
2021/10/26 01:55:18;;;;;;;7.73;3.90;;;;;;;6.90;94.56;96726.44;5016777;28;20210;-69
2021/10/26 01:57:45;;;;;;;22.07;4.30;;;;;;;6.78;94.09;96732.78;5016422;28;20225;-69
2021/10/26 02:00:14;;;;;;;5.60;3.97;;;;;;;6.76;95.42;96735.56;5016451;28;20206;-68
2021/10/26 02:02:41;;;;;;;11.07;3.73;;;;;;;6.58;95.20;96731.19;5013900;28;20206;-69
2021/10/26 02:05:08;;;;;;;8.77;3.30;;;;;;;6.71;94.46;96735.16;5021763;28;20236;-69
2021/10/26 02:07:35;;;;;;;6.30;4.00;;;;;;;6.63;94.16;96730.75;5020255;28;20214;-69
2021/10/26 02:10:01;;;;;;;10.37;5.07;;;;;;;6.59;95.20;96732.00;5021068;28;20213;-68
2021/10/26 02:12:29;;;;;;;12.80;4.57;;;;;;;6.83;94.95;96730.56;5021592;28;20760;-69
2021/10/26 02:14:55;;;;;;;9.10;4.57;;;;;;;6.62;94.34;96739.56;5021019;28;20205;-69
2021/10/26 02:17:22;;;;;;;7.17;3.30;;;;;;;6.65;94.94;96738.31;5019751;28;20225;-68
2021/10/26 02:19:48;;;;;;;5.97;3.57;;;;;;;6.61;95.84;96735.34;5020943;28;20213;-69
2021/10/26 02:22:15;;;;;;;7.03;4.10;;;;;;;6.60;94.31;96744.97;5020819;28;20725;-69
2021/10/26 02:24:43;;;;;;;14.53;5.47;;;;;;;6.91;93.89;96743.78;5020690;28;20868;-68
2021/10/26 02:27:09;;;;;;;10.47;5.40;;;;;;;6.71;93.60;96742.19;5019593;28;20224;-69
2021/10/26 02:29:37;;;;;;;7.10;3.13;;;;;;;6.91;93.14;96743.78;5020507;28;20209;-69
2021/10/26 02:32:05;;;;;;;7.57;4.40;;;;;;;6.82;91.75;96753.34;5020165;28;20209;-68
2021/10/26 02:34:31;;;;;;;10.10;3.40;;;;;;;6.69;92.66;96757.22;5020674;28;20213;-68
2021/10/26 02:36:58;;;;;;;10.77;3.97;;;;;;;6.49;93.29;96752.97;5019784;28;20226;-68
2021/10/26 02:39:25;;;;;;;7.50;3.93;;;;;;;6.65;92.54;96747.97;5019950;28;20210;-68
2021/10/26 02:41:52;;;;;;;4.87;2.87;;;;;;;6.63;91.83;96754.31;5020453;28;20698;-69
2021/10/26 02:44:19;;;;;;;6.43;3.73;;;;;;;6.58;91.60;96746.06;5020673;28;20685;-69
2021/10/26 02:46:46;;;;;;;10.53;3.90;;;;;;;6.80;92.15;96746.59;5019240;28;20241;-69
2021/10/26 02:49:14;;;;;;;11.43;4.57;;;;;;;6.62;92.18;96755.28;5019875;28;20572;-68
2021/10/26 02:51:41;;;;;;;12.30;4.83;;;;;;;6.64;92.61;96759.41;5020497;28;20209;-68
2021/10/26 02:54:07;;;;;;;4.57;3.00;;;;;;;6.48;92.15;96756.56;5020340;28;20229;-68
2021/10/26 02:56:34;;;;;;;6.10;3.17;;;;;;;6.34;91.92;96764.00;5019084;28;20228;-68
2021/10/26 02:59:00;;;;;;;7.87;3.10;;;;;;;6.10;94.76;96774.88;5016230;28;20213;-69
2021/10/26 03:01:27;;;;;;;15.53;3.83;;;;;;;6.30;95.47;96775.72;5016998;28;20202;-69
2021/10/26 03:03:55;;;;;;;7.90;3.60;;;;;;;6.48;94.13;96774.88;5019774;28;20206;-69
2021/10/26 03:06:21;;;;;;;6.70;3.43;;;;;;;6.24;92.99;96779.72;5019427;28;20225;-68
2021/10/26 03:08:48;;;;;;;4.00;2.30;;;;;;;6.08;91.75;96781.22;5019722;28;20206;-69
2021/10/26 03:11:15;;;;;;;5.53;3.20;;;;;;;6.18;92.06;96776.81;5020465;28;20205;-68
2021/10/26 03:13:41;;;;;;;6.47;3.00;;;;;;;6.16;92.07;96782.19;5019576;28;20697;-69
2021/10/26 03:16:08;;;;;;;2.60;2.00;;;;;;;6.29;91.48;96787.16;5018807;28;20661;-68
2021/10/26 03:18:34;;;;;;;6.07;2.50;;;;;;;6.25;92.92;96786.59;5019398;28;20213;-68
2021/10/26 03:21:02;;;;;;;5.67;3.13;;;;;;;6.43;94.81;96781.47;5019567;28;20213;-68
2021/10/26 03:23:29;;;;;;;3.43;2.37;;;;;;;6.40;94.01;96789.63;5019808;28;20305;-68
2021/10/26 03:25:55;;;;;;;12.73;3.60;;;;;;;6.57;93.67;96791.53;5019502;28;20233;-69
2021/10/26 03:28:22;;;;;;;6.70;3.73;;;;;;;6.58;93.91;96793.19;5019138;28;20202;-69
2021/10/26 03:30:49;;;;;;;5.47;3.07;;;;;;;6.64;94.15;96796.06;5019456;28;20209;-69
2021/10/26 03:33:15;;;;;;;8.07;3.20;;;;;;;6.68;94.52;96784.34;5019498;28;20217;-69
2021/10/26 03:35:42;;;;;;;9.57;5.33;;;;;;;6.75;93.57;96799.38;5018320;28;20209;-69
2021/10/26 03:38:09;;;;;;;6.43;3.53;;;;;;;6.85;94.00;96794.13;5019495;28;20202;-69
2021/10/26 03:40:36;;;;;;;3.90;2.67;;;;;;;6.68;93.61;96794.81;5019795;28;20201;-68
2021/10/26 03:43:04;;;;;;;5.47;3.07;;;;;;;6.54;96.01;96800.50;5018957;28;20206;-68
2021/10/26 03:45:30;;;;;;;10.63;2.83;;;;;;;6.69;95.01;96802.56;5017659;28;20206;-68
2021/10/26 03:47:57;;;;;;;3.67;2.57;;;;;;;6.67;94.64;96796.63;5019418;28;20216;-69
2021/10/26 03:50:23;;;;;;;3.77;2.47;;;;;;;6.68;95.36;96800.06;5018772;28;20201;-69
2021/10/26 03:52:49;;;;;;;5.97;3.20;;;;;;;6.78;95.20;96798.25;5019175;28;20225;-69
2021/10/26 03:55:18;;;;;;;4.60;3.13;;;;;;;7.07;94.48;96796.41;5020074;28;20201;-69
2021/10/26 03:57:44;;;;;;;11.57;4.60;;;;;;;6.80;94.60;96794.53;5018715;28;20267;-69
2021/10/26 04:00:12;;;;;;;7.43;4.90;;;;;;;6.88;95.17;96801.69;5018109;28;20205;-69
2021/10/26 04:02:41;;;;;;;14.20;4.70;;;;;;;6.86;95.26;96798.38;5016286;28;20205;-69
2021/10/26 04:05:16;;;;;;;5.87;3.43;;;;;;;6.98;94.47;96795.47;5018773;28;21151;-68
2021/10/26 04:07:47;;;;;;;5.20;3.07;;;;;;;7.07;94.69;96792.00;5017916;28;20283;-68
2021/10/26 04:10:17;;;;;;;10.97;3.37;;;;;;;7.20;94.19;96796.94;5019178;28;20649;-68
2021/10/26 04:12:44;;;;;;;9.13;5.47;;;;;;;7.20;94.76;96796.94;5018846;28;20743;-69
2021/10/26 04:15:11;;;;;;;8.57;3.40;;;;;;;7.02;94.74;96796.03;5018165;28;20212;-69
2021/10/26 04:17:37;;;;;;;8.23;3.57;;;;;;;7.03;94.70;96795.06;5018414;28;20702;-68
2021/10/26 04:20:05;;;;;;;8.27;3.10;;;;;;;7.14;94.89;96797.50;5018613;28;20218;-69
2021/10/26 04:22:31;;;;;;;7.73;4.20;;;;;;;7.10;94.64;96799.56;5018231;28;20202;-69
2021/10/26 04:24:58;;;;;;;10.30;4.80;;;;;;;7.06;96.24;96805.25;5018700;28;20293;-68
2021/10/26 04:27:25;;;;;;;12.57;4.57;;;;;;;7.25;95.35;96813.06;5016792;28;20733;-68
2021/10/26 04:29:52;;;;;;;4.63;2.93;;;;;;;7.41;96.17;96812.28;5018192;28;20210;-69
2021/10/26 04:32:19;;;;;;;4.63;4.00;;;;;;;7.14;97.92;96808.81;5018292;28;20201;-68
2021/10/26 04:34:45;;;;;;;7.77;4.03;;;;;;;7.20;96.65;96812.66;5018754;28;20236;-68
2021/10/26 04:37:12;;;;;;;5.23;3.00;;;;;;;7.14;98.04;96807.97;5017513;28;20225;-68
2021/10/26 04:39:39;;;;;;;7.97;3.83;;;;;;;7.22;96.33;96815.94;5018338;28;21266;-68
2021/10/26 04:42:08;;;;;;;10.83;3.20;;;;;;;7.39;95.17;96814.22;5018194;28;20206;-68
2021/10/26 04:44:35;;;;;;;7.70;4.20;;;;;;;7.16;95.18;96816.53;5018280;28;20202;-68
2021/10/26 04:47:03;;;;;;;5.17;3.17;;;;;;;7.45;94.45;96807.59;5016727;28;20234;-68
2021/10/26 04:49:30;;;;;;;4.43;2.97;;;;;;;7.31;94.83;96814.13;5017873;28;20571;-69
2021/10/26 04:51:56;;;;;;;3.83;2.80;;;;;;;7.33;94.58;96817.44;5018252;28;20202;-68
2021/10/26 04:54:23;;;;;;;8.60;3.53;;;;;;;7.33;94.96;96820.06;5017449;28;20222;-68
2021/10/26 04:56:50;;;;;;;4.30;2.53;;;;;;;7.28;95.43;96805.75;5017181;28;20221;-68
2021/10/26 04:59:16;;;;;;;7.83;3.50;;;;;;;7.35;95.38;96807.63;5017969;28;20202;-69
2021/10/26 05:01:43;;;;;;;6.43;3.07;;;;;;;7.48;94.96;96805.50;5014559;28;20233;-69
2021/10/26 05:04:11;;;;;;;5.07;3.13;;;;;;;7.66;95.71;96811.66;5018867;28;20202;-68
2021/10/26 05:06:37;;;;;;;7.27;4.10;;;;;;;7.51;96.38;96810.47;5017629;28;20226;-69
2021/10/26 05:09:04;;;;;;;6.93;3.90;;;;;;;7.56;96.48;96826.59;5017469;28;20206;-69
2021/10/26 05:11:30;;;;;;;9.77;5.50;;;;;;;7.63;97.10;96813.72;5016752;28;20292;-68
2021/10/26 05:13:57;;;;;;;11.10;4.47;;;;;;;7.73;96.69;96822.38;5018295;28;20698;-69
2021/10/26 05:16:25;;;;;;;7.40;4.33;;;;;;;7.76;97.26;96816.84;5016501;28;20252;-68
2021/10/26 05:18:55;;;;;;;8.67;4.67;;;;;;;7.57;97.35;96801.19;5017399;28;21133;-70
2021/10/26 05:21:23;;;;;;;10.17;3.93;;;;;;;7.92;98.22;96799.50;5017038;28;20221;-69
2021/10/26 05:23:50;;;;;;;7.40;4.90;;;;;;;7.78;97.87;96799.13;5017394;28;20287;-69
2021/10/26 05:26:18;;;;;;;8.67;4.10;;;;;;;7.97;97.57;96799.88;5015880;28;20218;-70
2021/10/26 05:28:48;;;;;;;7.33;3.47;;;;;;;8.20;97.08;96809.00;5017202;28;20219;-70
2021/10/26 05:31:15;;;;;;;8.67;3.73;;;;;;;7.76;98.39;96817.66;5017657;28;20208;-69
2021/10/26 05:33:42;;;;;;;8.67;3.13;;;;;;;7.91;98.14;96826.69;5016673;28;20713;-69
2021/10/26 05:36:09;;;;;;;8.20;4.37;;;;;;;7.86;99.34;96818.44;5016989;28;20233;-69
2021/10/26 05:38:37;;;;;;;9.47;5.00;;;;;;;8.14;98.43;96822.72;5016559;28;20679;-69
2021/10/26 05:41:04;;;;;;;18.60;6.87;;;;;;;8.06;97.51;96819.97;5017837;28;20205;-70
2021/10/26 05:43:31;;;;;;;9.53;4.90;;;;;;;7.96;97.48;96819.22;5016726;28;20271;-69
2021/10/26 05:45:58;;;;;;;11.07;4.53;;;;;;;7.89;97.92;96820.75;5016969;28;20233;-70
2021/10/26 05:48:25;;;;;;;13.40;4.23;;;;;;;7.64;99.80;96829.31;5016404;28;20982;-70
2021/10/26 05:50:52;;;;;;;6.67;3.67;;;;;;;7.83;98.77;96834.47;5016851;28;20210;-69
2021/10/26 05:53:19;;;;;;;9.13;5.10;;;;;;;7.82;98.31;96840.69;5017432;28;20233;-70
2021/10/26 05:55:47;;;;;;;5.50;3.03;;;;;;;8.20;98.51;96840.50;5016237;28;20212;-70
2021/10/26 05:58:13;;;;;;;14.47;5.43;;;;;;;7.97;97.72;96837.44;5016286;28;20209;-69
2021/10/26 06:00:41;;;;;;;10.67;4.20;;;;;;;8.23;97.28;96838.41;5015006;28;20229;-69
2021/10/26 06:03:08;;;;;;;14.77;6.90;;;;;;;8.08;98.18;96844.28;5016154;28;20209;-69
2021/10/26 06:05:35;;;;;;;11.43;5.37;;;;;;;7.76;100.00;96846.50;5016258;28;20206;-68
2021/10/26 06:08:03;;;;;;;6.80;3.90;;;;;;;7.93;100.00;96857.06;5017348;28;20209;-69
2021/10/26 06:10:31;;;;;;;11.87;6.47;;;;;;;8.06;99.17;96861.97;5017011;28;20202;-70
2021/10/26 06:13:04;;;;;;;7.07;4.53;;;;;;;8.43;98.27;96854.88;5016699;28;20206;-68
2021/10/26 06:15:30;;;;;;;8.27;4.90;;;;;;;8.36;98.01;96867.75;5015977;28;20233;-69
2021/10/26 06:17:57;;;;;;;6.83;5.17;;;;;;;8.31;97.75;96864.75;5016835;28;20201;-69
2021/10/26 06:20:23;;;;;;;8.30;3.67;;;;;;;8.39;97.46;96866.63;5016623;28;20663;-69
2021/10/26 06:22:50;;;;;;;10.63;4.20;;;;;;;8.11;99.67;96873.69;5016802;28;20237;-69
2021/10/26 06:25:17;;;;;;;13.60;5.13;;;;;;;8.35;98.68;96879.25;5016739;28;20204;-69
2021/10/26 06:27:43;;;;;;;11.63;6.20;;;;;;;8.50;98.47;96873.34;5015530;28;20471;-69
2021/10/26 06:30:11;;;;;;;9.43;4.90;;;;;;;8.78;97.66;96876.69;5017078;28;20221;-69
2021/10/26 06:32:40;;;;;;;8.33;4.13;;;;;;;8.73;98.31;96879.78;5016488;28;20198;-69
2021/10/26 06:35:08;;;;;;;9.63;5.50;;;;;;;8.58;98.63;96886.53;5015759;28;20225;-69
2021/10/26 06:37:36;;;;;;;7.40;4.30;;;;;;;8.60;98.44;96887.22;5015639;28;20222;-69
2021/10/26 06:40:04;;;;;;;12.47;4.70;;;;;;;8.76;98.12;96892.63;5017542;28;20237;-69
2021/10/26 06:42:32;;;;;;;13.40;5.93;;;;;;;8.59;99.32;96896.06;5017133;28;20208;-69
2021/10/26 06:44:59;;;;;;;11.33;5.03;;;;;;;8.51;99.34;96897.78;5016185;28;20202;-68
2021/10/26 06:47:27;;;;;;;21.37;5.43;;;;;;;8.60;100.00;96895.09;5015348;28;20230;-68
2021/10/26 06:49:53;;;;;;;8.63;3.57;;;;;;;8.53;99.50;96914.22;5017713;28;20202;-69
2021/10/26 06:52:20;;;;;;;14.00;6.33;;;;;;;8.80;97.92;96908.94;5020698;28;20241;-69
2021/10/26 06:54:46;;;;;;;10.03;4.87;;;;;;;8.80;97.84;96907.09;5019746;28;20234;-69
2021/10/26 06:57:14;;;;;;;9.77;4.90;;;;;;;8.86;97.98;96911.78;5020044;28;20228;-69
2021/10/26 06:59:40;;;;;;;11.53;5.07;;;;;;;8.85;98.41;96914.56;5019817;28;20202;-69
2021/10/26 07:02:07;;;;;;;17.33;4.83;;;;;;;9.01;97.66;96912.88;5017653;28;20206;-69
2021/10/26 07:04:36;;;;;;;7.37;4.00;;;;;;;9.25;97.68;96919.19;5019875;28;20190;-69
2021/10/26 07:07:03;;;;;;;6.40;4.17;;;;;;;9.16;97.50;96916.63;5019359;28;20283;-69
2021/10/26 07:09:30;;;;;;;13.33;4.33;;;;;;;9.01;98.22;96918.13;5019584;28;20205;-68
2021/10/26 07:11:57;;;;;;;8.90;4.73;;;;;;;9.26;97.40;96917.38;5020053;28;20375;-68
2021/10/26 07:14:24;;;;;;;6.37;3.77;;;;;;;9.16;97.70;96919.25;5019200;28;20784;-70
2021/10/26 07:16:51;;;;;;;7.33;4.03;;;;;;;9.28;97.26;96923.31;5018610;28;20646;-69
2021/10/26 07:19:17;;;;;;;6.43;3.50;;;;;;;9.33;97.17;96921.03;5019639;28;20591;-69
2021/10/26 07:21:45;;;;;;;9.63;4.17;;;;;;;9.61;96.99;96922.56;5019926;28;20231;-69
2021/10/26 07:24:13;;;;;;;11.57;5.57;;;;;;;9.18;98.51;96939.16;5019032;28;20201;-69
2021/10/26 07:26:40;;;;;;;6.43;3.97;;;;;;;9.34;98.71;96938.47;5018419;28;20308;-69
2021/10/26 07:29:07;;;;;;;10.23;4.63;;;;;;;9.35;97.35;96940.13;5019407;28;20210;-69
2021/10/26 07:31:34;;;;;;;8.20;4.37;;;;;;;9.53;97.42;96946.19;5019487;28;20198;-70
2021/10/26 07:34:01;;;;;;;17.40;4.57;;;;;;;9.50;97.29;96934.16;5019384;28;20369;-70
2021/10/26 07:36:31;;;;;;;13.83;4.90;;;;;;;9.70;97.22;96941.72;5016371;28;20225;-69
2021/10/26 07:39:01;;;;;;;22.80;5.23;;;;;;;9.89;96.76;96940.66;5019282;28;20213;-68
2021/10/26 07:41:28;;;;;;;19.63;5.67;;;;;;;9.48;98.35;96943.19;5019505;28;20209;-68
2021/10/26 07:43:55;;;;;;;9.83;5.73;;;;;;;9.66;97.50;96944.81;5020122;28;20202;-69
2021/10/26 07:46:22;;;;;;;20.57;6.37;;;;;;;9.78;97.24;96948.84;5017487;28;20760;-69
2021/10/26 07:48:49;;;;;;;19.43;6.83;;;;;;;9.70;96.77;96954.06;5018919;28;20447;-68
2021/10/26 07:51:15;;;;;;;14.40;7.27;;;;;;;9.87;95.74;96953.97;5019809;28;20744;-69
2021/10/26 07:53:42;;;;;;;10.57;5.43;;;;;;;9.57;97.70;96960.69;5018509;28;20206;-68
2021/10/26 07:56:10;;;;;;;11.47;5.37;;;;;;;10.00;97.03;96957.03;5017050;28;20395;-68
2021/10/26 07:58:39;;;;;;;13.47;6.63;;;;;;;9.71;98.17;96961.78;5019180;28;20206;-69
2021/10/26 08:01:06;;;;;;;10.77;5.07;;;;;;;9.89;97.34;96959.09;5015454;28;20674;-69
2021/10/26 08:03:33;;;;;;;13.70;6.57;;;;;;;9.78;98.42;96962.81;5018241;28;20702;-69
2021/10/26 08:06:00;;;;;;;9.40;4.50;;;;;;;9.90;97.43;96969.47;5016436;28;20218;-70
2021/10/26 08:08:27;;;;;;;14.77;4.70;;;;;;;10.20;96.56;96966.38;5017847;28;20202;-69
2021/10/26 08:10:54;;;;;;;11.57;5.00;;;;;;;10.11;96.95;96967.31;5018479;28;20213;-69
2021/10/26 08:13:22;;;;;;;12.87;5.17;;;;;;;10.28;97.35;96968.25;5018480;28;20201;-69
2021/10/26 08:15:49;;;;;;;13.93;4.97;;;;;;;10.25;97.97;96973.84;5017435;28;20236;-68
2021/10/26 08:18:17;;;;;;;10.90;4.90;;;;;;;10.67;97.13;96970.22;5018529;28;20202;-68
2021/10/26 08:20:44;;;;;;;12.97;5.43;;;;;;;10.66;95.98;96965.94;5018362;28;20693;-70
2021/10/26 08:23:10;;;;;;;10.63;5.57;;;;;;;10.54;96.00;96967.22;5018557;28;20202;-69
2021/10/26 08:25:39;;;;;;;11.37;5.47;;;;;;;10.74;95.77;96965.94;5017714;28;20281;-69
2021/10/26 08:28:09;;;;;;;15.73;6.90;;;;;;;10.79;95.34;96964.47;5018134;28;20228;-69
2021/10/26 08:30:42;;;;;;;9.83;4.93;;;;;;;10.90;96.62;96963.38;5018867;28;20201;-69
2021/10/26 08:33:21;;;;;;;11.87;4.97;;;;;;;11.02;95.24;96968.16;5018609;28;20326;-70
2021/10/26 08:35:47;;;;;;;5.77;3.57;;;;;;;10.78;96.42;96962.84;5017521;28;20233;-69
2021/10/26 08:38:15;;;;;;;12.27;5.73;;;;;;;10.99;96.75;96963.22;5015560;28;20209;-69
2021/10/26 08:40:46;;;;;;;13.90;5.87;;;;;;;10.97;96.28;96963.38;5017848;28;20202;-68
2021/10/26 08:43:15;;;;;;;10.77;5.00;;;;;;;10.89;97.61;96965.16;5017659;28;20205;-69
2021/10/26 08:45:47;;;;;;;13.80;6.10;;;;;;;11.44;95.10;96958.31;5016767;28;20198;-68
2021/10/26 08:48:20;;;;;;;10.17;4.67;;;;;;;11.29;97.40;96963.44;5017627;28;20733;-69
2021/10/26 08:50:48;;;;;;;17.77;7.73;;;;;;;11.38;96.23;96962.44;5018755;28;20217;-69
2021/10/26 08:53:15;;;;;;;11.77;4.87;;;;;;;11.22;96.47;96957.13;5017506;28;20682;-69
2021/10/26 08:55:41;;;;;;;11.47;5.80;;;;;;;11.64;95.50;96958.66;5016844;28;20222;-70
2021/10/26 08:58:09;;;;;;;12.77;4.90;;;;;;;11.87;95.28;96964.09;5018010;28;20237;-69
2021/10/26 09:00:36;;;;;;;18.83;7.03;;;;;;;11.92;94.99;96956.50;5016013;28;20749;-69
2021/10/26 09:03:18;;;;;;;18.30;6.17;;;;;;;12.00;95.19;96959.13;5015959;28;20221;-68
2021/10/26 09:05:46;;;;;;;12.17;6.17;;;;;;;11.93;95.24;96955.50;5017711;28;20238;-69
2021/10/26 09:08:12;;;;;;;12.03;4.73;;;;;;;11.44;96.51;96955.66;5017965;28;20198;-69
2021/10/26 09:10:40;;;;;;;13.27;6.83;;;;;;;11.76;96.74;96964.41;5017707;28;20201;-69
2021/10/26 09:18:40;;;;;;;9.67;6.03;;;;;;;11.76;96.54;96948.59;5017103;28;20268;-68
2021/10/26 09:21:23;;;;;;;13.70;4.80;;;;;;;11.66;96.70;96955.88;5017260;28;20205;-69
2021/10/26 09:23:49;;;;;;;1.53;1.43;;;;;;;11.34;96.81;96950.56;5017242;28;20233;-68
2021/10/26 09:26:16;;;;;;;15.93;5.13;;;;;;;11.55;97.09;96943.00;5016270;28;21045;-69
2021/10/26 09:28:51;;;;;;;16.27;6.70;;;;;;;12.01;95.82;96944.91;5016639;28;20213;-68
2021/10/26 09:31:24;;;;;;;21.70;7.27;;;;;;;11.69;97.85;96944.97;5017868;28;20217;-70
2021/10/26 09:34:02;;;;;;;10.63;5.80;;;;;;;12.01;96.42;96950.22;5016898;28;20589;-69
2021/10/26 09:36:30;;;;;;;11.60;5.70;;;;;;;11.92;96.64;96956.50;5015750;28;20253;-70
2021/10/26 09:39:16;;;;;;;10.83;4.37;;;;;;;12.16;95.38;96948.53;5017360;28;20210;-69
2021/10/26 09:42:02;;;;;;;17.73;6.07;;;;;;;12.27;94.27;96947.16;5016300;28;20228;-69
2021/10/26 09:44:37;;;;;;;17.03;6.80;;;;;;;12.28;95.47;96948.81;5016609;28;20300;-70
2021/10/26 09:47:06;;;;;;;13.10;5.63;;;;;;;12.68;94.37;96956.56;5016231;28;21046;-70
2021/10/26 09:49:36;;;;;;;10.83;4.83;;;;;;;12.80;93.68;96945.44;5016926;28;20212;-69
2021/10/26 09:52:15;;;;;;;15.93;6.70;;;;;;;12.78;93.35;96963.28;5016714;28;20202;-70
2021/10/26 09:54:42;;;;;;;10.27;6.90;;;;;;;12.36;94.87;96951.41;5016778;28;20686;-68
2021/10/26 09:57:10;;;;;;;11.33;5.43;;;;;;;12.80;93.60;96955.19;5016474;28;20713;-70
2021/10/26 09:59:45;;;;;;;12.80;6.13;;;;;;;13.05;92.29;96956.75;5016370;28;20205;-69
2021/10/26 10:02:16;;;;;;;12.33;5.50;;;;;;;13.33;91.23;96952.56;5014658;28;20209;-70
2021/10/26 10:04:44;;;;;;;12.60;5.83;;;;;;;13.00;92.09;96954.59;5017084;28;20198;-68
2021/10/26 10:07:11;;;;;;;13.97;6.37;;;;;;;12.96;91.26;96961.25;5016206;28;20234;-68
2021/10/26 10:09:37;;;;;;;11.50;4.07;;;;;;;12.97;92.49;96962.91;5016580;28;20209;-69
2021/10/26 10:12:06;;;;;;;13.97;5.67;;;;;;;13.46;91.16;96956.28;5016629;28;20733;-68
2021/10/26 10:14:37;;;;;;;13.25;7.13;;;;;;;13.97;89.50;96945.72;5016447;28;20202;-69
2021/10/26 10:17:07;;;;;;;21.00;5.73;;;;;;;13.98;89.43;96955.31;5016375;28;20229;-70
2021/10/26 10:19:35;;;;;;;16.10;5.63;;;;;;;13.82;89.27;96952.81;5016286;28;20198;-69
2021/10/26 10:22:06;;;;;;;14.47;5.17;;;;;;;14.04;88.39;96947.47;5016711;28;20202;-69
2021/10/26 10:24:38;;;;;;;9.70;5.05;;;;;;;13.78;89.23;96953.38;5018629;28;20202;-69
2021/10/26 10:27:06;;;;;;;10.30;4.75;;;;;;;14.22;88.89;96941.88;5020165;28;20233;-69
2021/10/26 10:29:33;;;;;;;8.27;4.67;;;;;;;14.01;88.31;96944.34;5020393;28;20202;-70
2021/10/26 10:32:00;;;;;;;6.95;4.22;;;;;;;14.17;88.01;96941.59;5020103;28;20210;-68
2021/10/26 10:34:27;;;;;;;9.50;3.13;;;;;;;14.02;88.75;96949.47;5020289;28;20206;-68
2021/10/26 10:36:55;;;;;;;8.63;4.28;;;;;;;14.22;88.10;96942.69;5019505;28;20253;-70
2021/10/26 10:39:32;;;;;;;11.18;4.00;;;;;;;14.30;86.78;96947.06;5020320;28;20198;-69
2021/10/26 10:42:19;;;;;;;8.18;3.78;;;;;;;14.40;85.92;96940.47;5019670;28;20213;-69
2021/10/26 10:44:45;;;;;;;5.82;3.95;;;;;;;14.25;86.77;96941.50;5020167;28;20213;-68
2021/10/26 10:47:32;;;;;;;7.88;4.30;;;;;;;14.74;85.94;96944.22;5019479;28;20824;-69
2021/10/26 10:49:59;;;;;;;1.98;1.80;;;;;;;14.16;87.14;96942.59;5021041;28;20206;-69
2021/10/26 10:52:31;;;;;;;12.82;4.07;;;;;;;14.73;86.33;96937.25;5019483;28;20221;-69
2021/10/26 10:55:01;;;;;;;7.60;4.00;;;;;;;14.89;85.80;96937.06;5020114;28;20226;-68
2021/10/26 10:57:33;;;;;;;8.25;3.60;;;;;;;14.71;85.53;96930.47;5019313;28;20316;-69
2021/10/26 11:00:03;;;;;;;8.73;4.53;;;;;;;14.92;84.76;96934.00;5020307;28;20292;-69
2021/10/26 11:02:35;;;;;;;8.52;4.00;;;;;;;15.18;84.53;96931.63;5017079;28;20232;-69
2021/10/26 11:05:04;;;;;;;12.27;3.70;;;;;;;15.24;83.25;96931.75;5020183;28;20267;-71
2021/10/26 11:07:51;;;;;;;6.90;3.40;;;;;;;15.72;82.03;96917.69;5018426;28;20279;-71
2021/10/26 11:10:20;;;;;;;13.82;4.55;;;;;;;15.48;82.82;96927.91;5019662;28;20208;-71
2021/10/26 11:12:47;;;;;;;8.57;3.72;;;;;;;15.38;82.31;96932.72;5019304;28;20217;-71
2021/10/26 11:15:20;;;;;;;7.90;4.35;;;;;;;15.55;81.83;96916.31;5019672;28;20221;-71
2021/10/26 11:17:57;;;;;;;9.90;3.17;;;;;;;15.64;80.09;96917.81;5018548;28;20240;-71
2021/10/26 11:20:46;;;;;;;5.68;2.20;;;;;;;15.98;78.80;96921.38;5019894;28;20205;-70
2021/10/26 11:23:16;;;;;;;10.85;3.38;;;;;;;15.99;79.25;96920.34;5019353;28;20209;-71
2021/10/26 11:25:46;;;;;;;4.72;2.90;;;;;;;16.09;78.87;96918.19;5018894;28;20206;-70
2021/10/26 11:28:42;;;;;;;6.85;3.63;;;;;;;16.09;78.51;96910.19;5019894;28;20197;-71
2021/10/26 11:31:15;;;;;;;6.50;2.53;;;;;;;16.52;77.77;96919.69;5019060;28;20205;-71
2021/10/26 11:33:52;;;;;;;4.35;2.10;;;;;;;16.41;77.13;96911.44;5019337;28;20210;-71
2021/10/26 11:36:19;;;;;;;4.38;2.42;;;;;;;15.94;77.40;96909.47;5018143;28;20624;-71
2021/10/26 11:38:48;;;;;;;5.18;2.50;;;;;;;16.40;76.78;96917.81;5018722;28;20217;-71
2021/10/26 11:41:18;;;;;;;2.72;2.45;;;;;;;15.81;77.42;96918.38;5019133;28;20633;-71
2021/10/26 11:43:47;;;;;;;3.85;2.22;;;;;;;15.84;77.66;96907.38;5018611;28;20658;-70
2021/10/26 11:46:15;;;;;;;4.15;2.47;;;;;;;15.80;77.29;96914.09;5016977;28;20261;-70